sensor_id;sensor_type;location;lat;lon;timestamp;temperature;humidity
28548;DHT22;15750;49.600;8.746;2022-08-19T00:01:22;26.60;53.30
28548;DHT22;15750;49.600;8.746;2022-08-19T00:04:17;26.60;53.30
28548;DHT22;15750;49.600;8.746;2022-08-19T00:07:07;26.60;53.20
28548;DHT22;15750;49.600;8.746;2022-08-19T00:09:54;26.60;53.20
28548;DHT22;15750;49.600;8.746;2022-08-19T00:12:42;26.60;53.30
28548;DHT22;15750;49.600;8.746;2022-08-19T00:15:34;26.60;53.30
28548;DHT22;15750;49.600;8.746;2022-08-19T00:18:23;26.60;53.30
28548;DHT22;15750;49.600;8.746;2022-08-19T00:21:10;26.60;53.30
28548;DHT22;15750;49.600;8.746;2022-08-19T00:23:57;26.60;53.30
28548;DHT22;15750;49.600;8.746;2022-08-19T00:26:45;26.60;53.40
28548;DHT22;15750;49.600;8.746;2022-08-19T00:29:32;26.60;53.40
28548;DHT22;15750;49.600;8.746;2022-08-19T00:32:20;26.60;53.40
28548;DHT22;15750;49.600;8.746;2022-08-19T00:35:09;26.60;53.30
28548;DHT22;15750;49.600;8.746;2022-08-19T00:37:57;26.60;53.30
28548;DHT22;15750;49.600;8.746;2022-08-19T00:40:45;26.60;53.20
28548;DHT22;15750;49.600;8.746;2022-08-19T00:43:33;26.60;53.90
28548;DHT22;15750;49.600;8.746;2022-08-19T00:46:21;26.60;53.20
28548;DHT22;15750;49.600;8.746;2022-08-19T00:49:12;26.60;53.30
28548;DHT22;15750;49.600;8.746;2022-08-19T00:52:07;26.60;53.30
28548;DHT22;15750;49.600;8.746;2022-08-19T00:54:56;26.50;53.20
28548;DHT22;15750;49.600;8.746;2022-08-19T00:57:50;26.50;53.20
28548;DHT22;15750;49.600;8.746;2022-08-19T01:00:41;26.50;53.50
28548;DHT22;15750;49.600;8.746;2022-08-19T01:03:28;26.50;53.30
28548;DHT22;15750;49.600;8.746;2022-08-19T01:06:36;26.50;53.40
28548;DHT22;15750;49.600;8.746;2022-08-19T01:09:26;26.50;53.50
28548;DHT22;15750;49.600;8.746;2022-08-19T01:12:14;26.50;53.60
28548;DHT22;15750;49.600;8.746;2022-08-19T01:15:02;26.50;53.70
28548;DHT22;15750;49.600;8.746;2022-08-19T01:17:51;26.50;53.70
28548;DHT22;15750;49.600;8.746;2022-08-19T01:20:40;26.50;53.80
28548;DHT22;15750;49.600;8.746;2022-08-19T01:23:31;26.50;53.80
28548;DHT22;15750;49.600;8.746;2022-08-19T01:26:29;26.50;53.80
28548;DHT22;15750;49.600;8.746;2022-08-19T01:29:17;26.50;53.70
28548;DHT22;15750;49.600;8.746;2022-08-19T01:32:06;26.50;54.40
28548;DHT22;15750;49.600;8.746;2022-08-19T01:35:16;26.50;53.70
28548;DHT22;15750;49.600;8.746;2022-08-19T01:38:07;26.60;53.80
28548;DHT22;15750;49.600;8.746;2022-08-19T01:40:58;26.50;53.70
28548;DHT22;15750;49.600;8.746;2022-08-19T01:43:54;26.50;53.90
28548;DHT22;15750;49.600;8.746;2022-08-19T01:47:01;26.60;53.80
28548;DHT22;15750;49.600;8.746;2022-08-19T01:49:49;26.60;53.80
28548;DHT22;15750;49.600;8.746;2022-08-19T01:52:37;26.60;53.80
28548;DHT22;15750;49.600;8.746;2022-08-19T01:55:25;26.60;53.80
28548;DHT22;15750;49.600;8.746;2022-08-19T01:58:17;26.60;53.80
28548;DHT22;15750;49.600;8.746;2022-08-19T02:01:07;26.60;53.90
28548;DHT22;15750;49.600;8.746;2022-08-19T02:03:55;26.60;53.90
28548;DHT22;15750;49.600;8.746;2022-08-19T02:06:42;26.60;53.80
28548;DHT22;15750;49.600;8.746;2022-08-19T02:09:31;26.60;53.80
28548;DHT22;15750;49.600;8.746;2022-08-19T02:12:19;26.60;53.80
28548;DHT22;15750;49.600;8.746;2022-08-19T02:15:08;26.60;53.70
28548;DHT22;15750;49.600;8.746;2022-08-19T02:17:56;26.50;53.60
28548;DHT22;15750;49.600;8.746;2022-08-19T02:20:44;26.50;53.60
28548;DHT22;15750;49.600;8.746;2022-08-19T02:23:32;26.50;53.60
28548;DHT22;15750;49.600;8.746;2022-08-19T02:26:19;26.50;53.60
28548;DHT22;15750;49.600;8.746;2022-08-19T02:29:07;26.50;53.70
28548;DHT22;15750;49.600;8.746;2022-08-19T02:31:56;26.50;53.90
28548;DHT22;15750;49.600;8.746;2022-08-19T02:34:43;26.50;54.10
28548;DHT22;15750;49.600;8.746;2022-08-19T02:37:31;26.50;54.10
28548;DHT22;15750;49.600;8.746;2022-08-19T02:40:36;26.50;54.20
28548;DHT22;15750;49.600;8.746;2022-08-19T02:43:24;26.50;54.10
28548;DHT22;15750;49.600;8.746;2022-08-19T02:46:13;26.50;54.20
28548;DHT22;15750;49.600;8.746;2022-08-19T02:49:06;26.50;54.20
28548;DHT22;15750;49.600;8.746;2022-08-19T02:51:55;26.50;54.30
28548;DHT22;15750;49.600;8.746;2022-08-19T02:54:42;26.50;54.20
28548;DHT22;15750;49.600;8.746;2022-08-19T02:57:30;26.50;54.20
28548;DHT22;15750;49.600;8.746;2022-08-19T03:00:18;26.50;54.20
28548;DHT22;15750;49.600;8.746;2022-08-19T03:03:06;26.50;54.20
28548;DHT22;15750;49.600;8.746;2022-08-19T03:06:08;26.50;54.20
28548;DHT22;15750;49.600;8.746;2022-08-19T03:08:57;26.50;54.30
28548;DHT22;15750;49.600;8.746;2022-08-19T03:11:45;26.50;54.10
28548;DHT22;15750;49.600;8.746;2022-08-19T03:14:34;26.50;54.10
28548;DHT22;15750;49.600;8.746;2022-08-19T03:17:22;26.50;54.30
28548;DHT22;15750;49.600;8.746;2022-08-19T03:20:10;26.50;54.40
28548;DHT22;15750;49.600;8.746;2022-08-19T03:22:59;26.50;54.30
28548;DHT22;15750;49.600;8.746;2022-08-19T03:25:48;26.50;54.30
28548;DHT22;15750;49.600;8.746;2022-08-19T03:28:56;26.50;54.20
28548;DHT22;15750;49.600;8.746;2022-08-19T03:31:49;26.50;54.30
28548;DHT22;15750;49.600;8.746;2022-08-19T03:34:38;26.50;54.30
28548;DHT22;15750;49.600;8.746;2022-08-19T03:37:25;26.50;54.30
28548;DHT22;15750;49.600;8.746;2022-08-19T03:40:15;26.50;54.30
28548;DHT22;15750;49.600;8.746;2022-08-19T03:43:04;26.50;54.20
28548;DHT22;15750;49.600;8.746;2022-08-19T03:46:00;26.50;54.20
28548;DHT22;15750;49.600;8.746;2022-08-19T03:48:51;26.50;54.30
28548;DHT22;15750;49.600;8.746;2022-08-19T03:51:41;26.40;54.20
28548;DHT22;15750;49.600;8.746;2022-08-19T03:54:30;26.40;54.20
28548;DHT22;15750;49.600;8.746;2022-08-19T03:57:19;26.40;54.30
28548;DHT22;15750;49.600;8.746;2022-08-19T04:00:16;26.40;54.30
28548;DHT22;15750;49.600;8.746;2022-08-19T04:03:04;26.40;54.30
28548;DHT22;15750;49.600;8.746;2022-08-19T04:05:51;26.40;54.30
28548;DHT22;15750;49.600;8.746;2022-08-19T04:08:39;26.40;54.30
28548;DHT22;15750;49.600;8.746;2022-08-19T04:11:28;26.40;54.30
28548;DHT22;15750;49.600;8.746;2022-08-19T04:14:31;26.40;54.40
28548;DHT22;15750;49.600;8.746;2022-08-19T04:17:19;26.40;54.50
28548;DHT22;15750;49.600;8.746;2022-08-19T04:20:08;26.40;54.50
28548;DHT22;15750;49.600;8.746;2022-08-19T04:22:56;26.40;54.50
28548;DHT22;15750;49.600;8.746;2022-08-19T04:25:44;26.40;54.50
28548;DHT22;15750;49.600;8.746;2022-08-19T04:28:31;26.40;54.50
28548;DHT22;15750;49.600;8.746;2022-08-19T04:31:23;26.40;54.50
28548;DHT22;15750;49.600;8.746;2022-08-19T04:34:14;26.40;54.50
28548;DHT22;15750;49.600;8.746;2022-08-19T04:37:05;26.40;54.60
28548;DHT22;15750;49.600;8.746;2022-08-19T04:39:57;26.40;54.60
28548;DHT22;15750;49.600;8.746;2022-08-19T04:43:02;26.40;54.50
28548;DHT22;15750;49.600;8.746;2022-08-19T04:45:49;26.40;54.50
28548;DHT22;15750;49.600;8.746;2022-08-19T04:48:43;26.40;54.60
28548;DHT22;15750;49.600;8.746;2022-08-19T04:51:34;26.40;54.70
28548;DHT22;15750;49.600;8.746;2022-08-19T04:54:24;26.30;54.60
28548;DHT22;15750;49.600;8.746;2022-08-19T04:57:23;26.30;54.60
28548;DHT22;15750;49.600;8.746;2022-08-19T05:00:12;26.40;54.50
28548;DHT22;15750;49.600;8.746;2022-08-19T05:02:59;26.30;54.50
28548;DHT22;15750;49.600;8.746;2022-08-19T05:05:53;26.30;54.50
28548;DHT22;15750;49.600;8.746;2022-08-19T05:08:42;26.30;54.50
28548;DHT22;15750;49.600;8.746;2022-08-19T05:11:33;26.30;54.50
28548;DHT22;15750;49.600;8.746;2022-08-19T05:14:24;26.30;54.60
28548;DHT22;15750;49.600;8.746;2022-08-19T05:17:12;26.30;54.70
28548;DHT22;15750;49.600;8.746;2022-08-19T05:20:20;26.30;54.70
28548;DHT22;15750;49.600;8.746;2022-08-19T05:23:25;26.30;54.80
28548;DHT22;15750;49.600;8.746;2022-08-19T05:26:13;26.30;54.80
28548;DHT22;15750;49.600;8.746;2022-08-19T05:29:00;26.30;55.60
28548;DHT22;15750;49.600;8.746;2022-08-19T05:31:48;26.30;54.90
28548;DHT22;15750;49.600;8.746;2022-08-19T05:34:36;26.30;55.00
28548;DHT22;15750;49.600;8.746;2022-08-19T05:37:24;26.30;55.00
28548;DHT22;15750;49.600;8.746;2022-08-19T05:40:14;26.30;55.10
28548;DHT22;15750;49.600;8.746;2022-08-19T05:43:03;26.30;55.10
28548;DHT22;15750;49.600;8.746;2022-08-19T05:45:51;26.40;55.10
28548;DHT22;15750;49.600;8.746;2022-08-19T05:48:38;26.40;55.00
28548;DHT22;15750;49.600;8.746;2022-08-19T05:51:25;26.40;55.10
28548;DHT22;15750;49.600;8.746;2022-08-19T05:54:14;26.40;55.30
28548;DHT22;15750;49.600;8.746;2022-08-19T05:57:03;26.40;55.20
28548;DHT22;15750;49.600;8.746;2022-08-19T05:59:51;26.40;55.30
28548;DHT22;15750;49.600;8.746;2022-08-19T06:02:43;26.50;55.40
28548;DHT22;15750;49.600;8.746;2022-08-19T06:05:31;26.50;55.40
28548;DHT22;15750;49.600;8.746;2022-08-19T06:08:34;26.40;55.40
28548;DHT22;15750;49.600;8.746;2022-08-19T06:11:24;26.50;55.40
28548;DHT22;15750;49.600;8.746;2022-08-19T06:14:25;26.50;55.50
28548;DHT22;15750;49.600;8.746;2022-08-19T06:17:13;26.50;55.60
28548;DHT22;15750;49.600;8.746;2022-08-19T06:20:04;26.50;55.40
28548;DHT22;15750;49.600;8.746;2022-08-19T06:22:52;26.50;55.40
28548;DHT22;15750;49.600;8.746;2022-08-19T06:25:40;26.50;55.30
28548;DHT22;15750;49.600;8.746;2022-08-19T06:28:27;26.50;55.40
28548;DHT22;15750;49.600;8.746;2022-08-19T06:31:17;26.60;55.50
28548;DHT22;15750;49.600;8.746;2022-08-19T06:34:07;26.60;55.40
28548;DHT22;15750;49.600;8.746;2022-08-19T06:36:57;26.60;55.30
28548;DHT22;15750;49.600;8.746;2022-08-19T06:39:47;26.60;55.20
28548;DHT22;15750;49.600;8.746;2022-08-19T06:42:35;26.60;55.20
28548;DHT22;15750;49.600;8.746;2022-08-19T06:45:28;26.60;55.10
28548;DHT22;15750;49.600;8.746;2022-08-19T06:48:21;26.60;55.00
28548;DHT22;15750;49.600;8.746;2022-08-19T06:51:10;26.60;55.10
28548;DHT22;15750;49.600;8.746;2022-08-19T06:54:04;26.70;55.20
28548;DHT22;15750;49.600;8.746;2022-08-19T06:57:04;26.70;55.20
28548;DHT22;15750;49.600;8.746;2022-08-19T06:59:53;26.70;55.10
28548;DHT22;15750;49.600;8.746;2022-08-19T07:02:42;26.70;55.30
28548;DHT22;15750;49.600;8.746;2022-08-19T07:05:42;26.70;55.30
28548;DHT22;15750;49.600;8.746;2022-08-19T07:08:31;26.70;55.30
28548;DHT22;15750;49.600;8.746;2022-08-19T07:11:19;26.80;55.30
28548;DHT22;15750;49.600;8.746;2022-08-19T07:14:09;26.80;55.30
28548;DHT22;15750;49.600;8.746;2022-08-19T07:17:06;26.80;55.30
28548;DHT22;15750;49.600;8.746;2022-08-19T07:19:55;26.80;55.30
28548;DHT22;15750;49.600;8.746;2022-08-19T07:22:51;26.80;55.30
28548;DHT22;15750;49.600;8.746;2022-08-19T07:25:40;26.90;55.30
28548;DHT22;15750;49.600;8.746;2022-08-19T07:28:28;26.90;55.30
28548;DHT22;15750;49.600;8.746;2022-08-19T07:31:18;26.90;55.30
28548;DHT22;15750;49.600;8.746;2022-08-19T07:34:10;26.90;55.30
28548;DHT22;15750;49.600;8.746;2022-08-19T07:37:01;27.00;55.30
28548;DHT22;15750;49.600;8.746;2022-08-19T07:39:50;27.00;55.30
28548;DHT22;15750;49.600;8.746;2022-08-19T07:42:37;27.00;55.40
28548;DHT22;15750;49.600;8.746;2022-08-19T07:45:25;27.10;55.30
28548;DHT22;15750;49.600;8.746;2022-08-19T07:48:12;27.10;55.20
28548;DHT22;15750;49.600;8.746;2022-08-19T07:51:02;27.10;55.20
28548;DHT22;15750;49.600;8.746;2022-08-19T07:53:51;27.10;55.30
28548;DHT22;15750;49.600;8.746;2022-08-19T07:56:39;27.10;55.20
28548;DHT22;15750;49.600;8.746;2022-08-19T07:59:28;27.10;55.20
28548;DHT22;15750;49.600;8.746;2022-08-19T08:02:16;27.10;55.10
28548;DHT22;15750;49.600;8.746;2022-08-19T08:05:04;27.20;55.00
28548;DHT22;15750;49.600;8.746;2022-08-19T08:08:08;27.20;55.00
28548;DHT22;15750;49.600;8.746;2022-08-19T08:11:29;27.20;54.70
28548;DHT22;15750;49.600;8.746;2022-08-19T08:14:21;27.20;54.70
28548;DHT22;15750;49.600;8.746;2022-08-19T08:17:15;27.20;54.80
28548;DHT22;15750;49.600;8.746;2022-08-19T08:20:23;27.30;54.80
28548;DHT22;15750;49.600;8.746;2022-08-19T08:23:11;27.30;54.90
28548;DHT22;15750;49.600;8.746;2022-08-19T08:26:12;27.30;54.90
28548;DHT22;15750;49.600;8.746;2022-08-19T08:29:00;27.30;55.00
28548;DHT22;15750;49.600;8.746;2022-08-19T08:31:58;27.40;55.00
28548;DHT22;15750;49.600;8.746;2022-08-19T08:34:45;27.40;54.90
28548;DHT22;15750;49.600;8.746;2022-08-19T08:37:37;27.40;54.70
28548;DHT22;15750;49.600;8.746;2022-08-19T08:40:29;27.50;54.70
28548;DHT22;15750;49.600;8.746;2022-08-19T08:43:24;27.50;54.60
28548;DHT22;15750;49.600;8.746;2022-08-19T08:46:21;27.50;54.30
28548;DHT22;15750;49.600;8.746;2022-08-19T08:49:26;27.60;54.20
28548;DHT22;15750;49.600;8.746;2022-08-19T08:52:20;27.60;54.10
28548;DHT22;15750;49.600;8.746;2022-08-19T08:55:20;27.60;54.20
28548;DHT22;15750;49.600;8.746;2022-08-19T08:58:13;27.70;54.00
28548;DHT22;15750;49.600;8.746;2022-08-19T09:01:02;27.70;54.00
28548;DHT22;15750;49.600;8.746;2022-08-19T09:03:50;27.70;53.90
28548;DHT22;15750;49.600;8.746;2022-08-19T09:06:47;27.70;53.80
28548;DHT22;15750;49.600;8.746;2022-08-19T09:09:40;27.70;53.60
28548;DHT22;15750;49.600;8.746;2022-08-19T09:12:34;27.80;53.70
28548;DHT22;15750;49.600;8.746;2022-08-19T09:15:29;27.80;53.10
28548;DHT22;15750;49.600;8.746;2022-08-19T09:18:21;27.80;53.20
28548;DHT22;15750;49.600;8.746;2022-08-19T09:21:09;27.80;53.00
28548;DHT22;15750;49.600;8.746;2022-08-19T09:23:58;27.80;52.70
28548;DHT22;15750;49.600;8.746;2022-08-19T09:26:48;27.80;52.50
28548;DHT22;15750;49.600;8.746;2022-08-19T09:29:37;27.80;52.50
28548;DHT22;15750;49.600;8.746;2022-08-19T09:32:25;27.80;52.60
28548;DHT22;15750;49.600;8.746;2022-08-19T09:35:13;27.90;52.70
28548;DHT22;15750;49.600;8.746;2022-08-19T09:38:01;27.90;52.50
28548;DHT22;15750;49.600;8.746;2022-08-19T09:40:50;27.90;52.60
28548;DHT22;15750;49.600;8.746;2022-08-19T09:43:37;27.90;52.10
28548;DHT22;15750;49.600;8.746;2022-08-19T09:46:29;27.90;52.20
28548;DHT22;15750;49.600;8.746;2022-08-19T09:49:18;27.90;52.10
28548;DHT22;15750;49.600;8.746;2022-08-19T09:52:09;27.90;52.10
28548;DHT22;15750;49.600;8.746;2022-08-19T09:54:58;27.90;52.20
28548;DHT22;15750;49.600;8.746;2022-08-19T09:57:54;28.00;52.30
28548;DHT22;15750;49.600;8.746;2022-08-19T10:00:42;28.00;52.10
28548;DHT22;15750;49.600;8.746;2022-08-19T10:03:36;28.00;52.20
28548;DHT22;15750;49.600;8.746;2022-08-19T10:06:25;28.00;52.00
28548;DHT22;15750;49.600;8.746;2022-08-19T10:09:31;28.00;51.70
28548;DHT22;15750;49.600;8.746;2022-08-19T10:12:19;28.10;51.80
28548;DHT22;15750;49.600;8.746;2022-08-19T10:15:12;28.10;51.70
28548;DHT22;15750;49.600;8.746;2022-08-19T10:18:00;28.10;51.50
28548;DHT22;15750;49.600;8.746;2022-08-19T10:20:50;28.10;51.30
28548;DHT22;15750;49.600;8.746;2022-08-19T10:23:42;28.10;51.20
28548;DHT22;15750;49.600;8.746;2022-08-19T10:26:33;28.10;51.00
28548;DHT22;15750;49.600;8.746;2022-08-19T10:29:21;28.10;51.30
28548;DHT22;15750;49.600;8.746;2022-08-19T10:32:19;28.10;51.30
28548;DHT22;15750;49.600;8.746;2022-08-19T10:35:19;28.10;51.30
28548;DHT22;15750;49.600;8.746;2022-08-19T10:38:07;28.20;51.30
28548;DHT22;15750;49.600;8.746;2022-08-19T10:40:55;28.30;51.30
28548;DHT22;15750;49.600;8.746;2022-08-19T10:43:42;28.30;51.20
28548;DHT22;15750;49.600;8.746;2022-08-19T10:46:31;28.40;51.20
28548;DHT22;15750;49.600;8.746;2022-08-19T10:49:21;28.50;50.90
28548;DHT22;15750;49.600;8.746;2022-08-19T10:52:09;28.60;50.90
28548;DHT22;15750;49.600;8.746;2022-08-19T10:55:19;28.70;50.80
28548;DHT22;15750;49.600;8.746;2022-08-19T10:58:25;28.80;50.60
28548;DHT22;15750;49.600;8.746;2022-08-19T11:01:13;28.90;50.40
28548;DHT22;15750;49.600;8.746;2022-08-19T11:04:01;28.90;50.10
28548;DHT22;15750;49.600;8.746;2022-08-19T11:06:50;28.90;49.90
28548;DHT22;15750;49.600;8.746;2022-08-19T11:09:40;28.90;49.70
28548;DHT22;15750;49.600;8.746;2022-08-19T11:12:28;28.90;49.80
28548;DHT22;15750;49.600;8.746;2022-08-19T11:15:15;28.90;49.70
28548;DHT22;15750;49.600;8.746;2022-08-19T11:18:03;28.90;49.60
28548;DHT22;15750;49.600;8.746;2022-08-19T11:21:05;28.90;49.50
28548;DHT22;15750;49.600;8.746;2022-08-19T11:23:57;28.90;49.20
28548;DHT22;15750;49.600;8.746;2022-08-19T11:26:47;28.90;49.10
28548;DHT22;15750;49.600;8.746;2022-08-19T11:29:35;28.90;49.20
28548;DHT22;15750;49.600;8.746;2022-08-19T11:32:24;28.80;49.40
28548;DHT22;15750;49.600;8.746;2022-08-19T11:35:11;28.90;49.30
28548;DHT22;15750;49.600;8.746;2022-08-19T11:37:59;28.80;49.20
28548;DHT22;15750;49.600;8.746;2022-08-19T11:41:00;28.80;49.30
28548;DHT22;15750;49.600;8.746;2022-08-19T11:43:49;28.80;48.90
28548;DHT22;15750;49.600;8.746;2022-08-19T11:46:38;28.80;49.10
28548;DHT22;15750;49.600;8.746;2022-08-19T11:49:26;28.80;48.90
28548;DHT22;15750;49.600;8.746;2022-08-19T11:52:14;28.80;49.10
28548;DHT22;15750;49.600;8.746;2022-08-19T11:55:01;28.80;49.00
28548;DHT22;15750;49.600;8.746;2022-08-19T11:57:50;28.80;48.70
28548;DHT22;15750;49.600;8.746;2022-08-19T12:00:38;28.80;48.50
28548;DHT22;15750;49.600;8.746;2022-08-19T12:03:27;28.80;48.70
28548;DHT22;15750;49.600;8.746;2022-08-19T12:06:19;28.80;48.70
28548;DHT22;15750;49.600;8.746;2022-08-19T12:09:10;28.80;48.60
28548;DHT22;15750;49.600;8.746;2022-08-19T12:11:57;28.80;48.50
28548;DHT22;15750;49.600;8.746;2022-08-19T12:14:47;28.80;48.60
28548;DHT22;15750;49.600;8.746;2022-08-19T12:17:43;28.80;48.40
28548;DHT22;15750;49.600;8.746;2022-08-19T12:20:30;28.80;48.40
28548;DHT22;15750;49.600;8.746;2022-08-19T12:23:21;28.80;48.30
28548;DHT22;15750;49.600;8.746;2022-08-19T12:26:09;28.80;47.40
28548;DHT22;15750;49.600;8.746;2022-08-19T12:28:57;28.70;47.90
28548;DHT22;15750;49.600;8.746;2022-08-19T12:31:47;28.70;47.40
28548;DHT22;15750;49.600;8.746;2022-08-19T12:34:34;28.70;47.50
28548;DHT22;15750;49.600;8.746;2022-08-19T12:37:23;28.70;47.70
28548;DHT22;15750;49.600;8.746;2022-08-19T12:40:11;28.80;47.60
28548;DHT22;15750;49.600;8.746;2022-08-19T12:42:59;28.80;47.50
28548;DHT22;15750;49.600;8.746;2022-08-19T12:45:46;28.80;47.00
28548;DHT22;15750;49.600;8.746;2022-08-19T12:48:35;28.80;46.80
28548;DHT22;15750;49.600;8.746;2022-08-19T12:51:24;28.80;46.90
28548;DHT22;15750;49.600;8.746;2022-08-19T12:54:12;28.80;46.90
28548;DHT22;15750;49.600;8.746;2022-08-19T12:57:00;28.80;47.10
28548;DHT22;15750;49.600;8.746;2022-08-19T12:59:52;28.90;46.90
28548;DHT22;15750;49.600;8.746;2022-08-19T13:02:44;28.90;46.50
28548;DHT22;15750;49.600;8.746;2022-08-19T13:05:33;28.90;46.40
28548;DHT22;15750;49.600;8.746;2022-08-19T13:08:21;28.90;46.70
28548;DHT22;15750;49.600;8.746;2022-08-19T13:11:12;28.90;46.60
28548;DHT22;15750;49.600;8.746;2022-08-19T13:14:01;29.00;46.20
28548;DHT22;15750;49.600;8.746;2022-08-19T13:16:49;29.00;46.30
28548;DHT22;15750;49.600;8.746;2022-08-19T13:19:37;29.00;46.30
28548;DHT22;15750;49.600;8.746;2022-08-19T13:22:27;29.00;46.30
28548;DHT22;15750;49.600;8.746;2022-08-19T13:25:15;29.00;46.20
28548;DHT22;15750;49.600;8.746;2022-08-19T13:28:05;29.10;46.20
28548;DHT22;15750;49.600;8.746;2022-08-19T13:30:57;29.10;46.10
28548;DHT22;15750;49.600;8.746;2022-08-19T13:34:02;29.10;46.50
28548;DHT22;15750;49.600;8.746;2022-08-19T13:36:52;29.10;45.60
28548;DHT22;15750;49.600;8.746;2022-08-19T13:39:42;29.10;45.20
28548;DHT22;15750;49.600;8.746;2022-08-19T13:42:30;29.10;45.40
28548;DHT22;15750;49.600;8.746;2022-08-19T13:45:20;29.10;45.30
28548;DHT22;15750;49.600;8.746;2022-08-19T13:48:08;29.10;45.30
28548;DHT22;15750;49.600;8.746;2022-08-19T13:50:55;29.10;44.90
28548;DHT22;15750;49.600;8.746;2022-08-19T13:53:44;29.10;44.70
28548;DHT22;15750;49.600;8.746;2022-08-19T13:56:35;29.10;44.60
28548;DHT22;15750;49.600;8.746;2022-08-19T13:59:27;29.10;44.10
28548;DHT22;15750;49.600;8.746;2022-08-19T14:02:14;29.10;44.40
28548;DHT22;15750;49.600;8.746;2022-08-19T14:05:02;29.10;44.30
28548;DHT22;15750;49.600;8.746;2022-08-19T14:07:50;29.10;44.30
28548;DHT22;15750;49.600;8.746;2022-08-19T14:10:38;29.10;44.60
28548;DHT22;15750;49.600;8.746;2022-08-19T14:13:29;29.10;44.40
28548;DHT22;15750;49.600;8.746;2022-08-19T14:16:19;29.10;44.20
28548;DHT22;15750;49.600;8.746;2022-08-19T14:19:07;29.10;44.30
28548;DHT22;15750;49.600;8.746;2022-08-19T14:21:55;29.10;44.30
28548;DHT22;15750;49.600;8.746;2022-08-19T14:24:43;29.10;44.10
28548;DHT22;15750;49.600;8.746;2022-08-19T14:27:33;29.10;43.90
28548;DHT22;15750;49.600;8.746;2022-08-19T14:30:24;29.10;44.00
28548;DHT22;15750;49.600;8.746;2022-08-19T14:33:13;29.10;44.00
28548;DHT22;15750;49.600;8.746;2022-08-19T14:36:00;29.10;44.00
28548;DHT22;15750;49.600;8.746;2022-08-19T14:38:47;29.10;44.00
28548;DHT22;15750;49.600;8.746;2022-08-19T14:41:35;29.20;44.00
28548;DHT22;15750;49.600;8.746;2022-08-19T14:44:23;29.10;44.10
28548;DHT22;15750;49.600;8.746;2022-08-19T14:47:12;29.20;44.00
28548;DHT22;15750;49.600;8.746;2022-08-19T14:49:59;29.20;43.90
28548;DHT22;15750;49.600;8.746;2022-08-19T14:52:50;29.20;44.00
28548;DHT22;15750;49.600;8.746;2022-08-19T14:55:45;29.20;44.00
28548;DHT22;15750;49.600;8.746;2022-08-19T14:58:33;29.20;43.90
28548;DHT22;15750;49.600;8.746;2022-08-19T15:01:23;29.20;43.70
28548;DHT22;15750;49.600;8.746;2022-08-19T15:04:12;29.20;43.90
28548;DHT22;15750;49.600;8.746;2022-08-19T15:07:00;29.20;43.60
28548;DHT22;15750;49.600;8.746;2022-08-19T15:09:50;29.20;43.60
28548;DHT22;15750;49.600;8.746;2022-08-19T15:12:38;29.20;43.50
28548;DHT22;15750;49.600;8.746;2022-08-19T15:15:26;29.20;43.10
28548;DHT22;15750;49.600;8.746;2022-08-19T15:18:13;29.20;43.00
28548;DHT22;15750;49.600;8.746;2022-08-19T15:21:03;29.20;42.80
28548;DHT22;15750;49.600;8.746;2022-08-19T15:23:51;29.20;42.50
28548;DHT22;15750;49.600;8.746;2022-08-19T15:26:38;29.10;43.60
28548;DHT22;15750;49.600;8.746;2022-08-19T15:29:26;29.20;42.70
28548;DHT22;15750;49.600;8.746;2022-08-19T15:32:13;29.20;42.70
28548;DHT22;15750;49.600;8.746;2022-08-19T15:35:00;29.20;42.50
28548;DHT22;15750;49.600;8.746;2022-08-19T15:37:51;29.20;42.60
28548;DHT22;15750;49.600;8.746;2022-08-19T15:40:39;29.10;42.30
28548;DHT22;15750;49.600;8.746;2022-08-19T15:43:27;29.10;42.50
28548;DHT22;15750;49.600;8.746;2022-08-19T15:46:16;29.10;42.40
28548;DHT22;15750;49.600;8.746;2022-08-19T15:49:05;29.10;42.30
28548;DHT22;15750;49.600;8.746;2022-08-19T15:51:53;29.10;42.40
28548;DHT22;15750;49.600;8.746;2022-08-19T15:54:44;29.10;42.30
28548;DHT22;15750;49.600;8.746;2022-08-19T15:57:31;29.10;42.30
28548;DHT22;15750;49.600;8.746;2022-08-19T16:00:35;29.10;42.30
28548;DHT22;15750;49.600;8.746;2022-08-19T16:03:40;29.10;42.10
28548;DHT22;15750;49.600;8.746;2022-08-19T16:06:46;29.10;41.90
28548;DHT22;15750;49.600;8.746;2022-08-19T16:09:35;29.10;41.80
28548;DHT22;15750;49.600;8.746;2022-08-19T16:12:23;29.10;41.80
28548;DHT22;15750;49.600;8.746;2022-08-19T16:15:15;29.00;41.60
28548;DHT22;15750;49.600;8.746;2022-08-19T16:18:02;29.00;41.50
28548;DHT22;15750;49.600;8.746;2022-08-19T16:20:50;29.00;41.60
28548;DHT22;15750;49.600;8.746;2022-08-19T16:23:37;29.00;41.60
28548;DHT22;15750;49.600;8.746;2022-08-19T16:26:26;29.00;41.60
28548;DHT22;15750;49.600;8.746;2022-08-19T16:29:18;29.00;41.50
28548;DHT22;15750;49.600;8.746;2022-08-19T16:32:23;29.00;41.40
28548;DHT22;15750;49.600;8.746;2022-08-19T16:35:11;29.00;42.20
28548;DHT22;15750;49.600;8.746;2022-08-19T16:37:58;29.00;41.50
28548;DHT22;15750;49.600;8.746;2022-08-19T16:40:46;29.00;41.50
28548;DHT22;15750;49.600;8.746;2022-08-19T16:43:33;29.00;41.50
28548;DHT22;15750;49.600;8.746;2022-08-19T16:46:24;29.00;41.70
28548;DHT22;15750;49.600;8.746;2022-08-19T16:49:12;28.90;42.40
28548;DHT22;15750;49.600;8.746;2022-08-19T16:52:05;28.90;41.80
28548;DHT22;15750;49.600;8.746;2022-08-19T16:54:54;28.90;41.60
28548;DHT22;15750;49.600;8.746;2022-08-19T16:57:41;28.90;41.70
28548;DHT22;15750;49.600;8.746;2022-08-19T17:00:28;28.90;41.70
28548;DHT22;15750;49.600;8.746;2022-08-19T17:03:18;28.90;41.70
28548;DHT22;15750;49.600;8.746;2022-08-19T17:06:23;28.90;41.70
28548;DHT22;15750;49.600;8.746;2022-08-19T17:09:12;28.90;41.60
28548;DHT22;15750;49.600;8.746;2022-08-19T17:12:10;28.90;41.80
28548;DHT22;15750;49.600;8.746;2022-08-19T17:14:58;28.90;41.90
28548;DHT22;15750;49.600;8.746;2022-08-19T17:17:46;28.90;41.90
28548;DHT22;15750;49.600;8.746;2022-08-19T17:20:35;28.90;42.00
28548;DHT22;15750;49.600;8.746;2022-08-19T17:23:23;28.80;41.50
28548;DHT22;15750;49.600;8.746;2022-08-19T17:26:29;28.80;42.00
28548;DHT22;15750;49.600;8.746;2022-08-19T17:29:16;28.80;42.50
28548;DHT22;15750;49.600;8.746;2022-08-19T17:32:04;28.80;42.80
28548;DHT22;15750;49.600;8.746;2022-08-19T17:34:52;28.80;43.50
28548;DHT22;15750;49.600;8.746;2022-08-19T17:37:41;28.80;43.40
28548;DHT22;15750;49.600;8.746;2022-08-19T17:40:28;28.80;43.80
28548;DHT22;15750;49.600;8.746;2022-08-19T17:43:17;28.80;43.90
28548;DHT22;15750;49.600;8.746;2022-08-19T17:46:18;28.80;43.80
28548;DHT22;15750;49.600;8.746;2022-08-19T17:49:06;28.80;43.50
28548;DHT22;15750;49.600;8.746;2022-08-19T17:51:53;28.80;43.30
28548;DHT22;15750;49.600;8.746;2022-08-19T17:54:42;28.80;43.20
28548;DHT22;15750;49.600;8.746;2022-08-19T17:57:30;28.80;43.20